createdAt,value
2022-12-28T00:01:22.820Z,7.12
2022-12-28T00:04:54.771Z,7.11
2022-12-28T00:08:16.629Z,6.95
2022-12-28T00:11:45.027Z,6.95
2022-12-28T00:15:09.435Z,7.11
2022-12-28T00:18:39.185Z,7.12
2022-12-28T00:22:02.039Z,7.09
2022-12-28T00:25:24.055Z,7.22
2022-12-28T00:28:49.049Z,7.22
2022-12-28T00:32:10.962Z,7.19
2022-12-28T00:35:36.005Z,7.35
2022-12-28T00:38:58.658Z,7.25
2022-12-28T00:42:21.042Z,7.24
2022-12-28T00:45:50.228Z,7.28
2022-12-28T00:49:20.315Z,7.24
2022-12-28T00:52:43.221Z,7.36
2022-12-28T00:56:09.345Z,7.25
2022-12-28T00:59:33.307Z,7.44
2022-12-28T01:03:05.759Z,7.45
2022-12-28T01:06:29.544Z,7.55
2022-12-28T01:09:53.771Z,7.67
2022-12-28T01:13:15.834Z,7.56
2022-12-28T01:16:44.061Z,7.50
2022-12-28T01:20:21.285Z,7.56
2022-12-28T01:23:46.962Z,7.63
2022-12-28T01:27:09.914Z,7.80
2022-12-28T01:30:34.605Z,7.88
2022-12-28T01:34:03.411Z,8.12
2022-12-28T01:37:26.569Z,8.30
2022-12-28T01:40:49.427Z,8.14
2022-12-28T01:44:11.352Z,8.35
2022-12-28T01:47:35.690Z,8.23
2022-12-28T01:51:06.022Z,8.28
2022-12-28T01:54:56.175Z,8.36
2022-12-28T01:58:32.327Z,8.36
2022-12-28T02:01:56.600Z,8.55
2022-12-28T02:05:31.078Z,7.90
2022-12-28T02:09:17.579Z,8.70
2022-12-28T02:12:41.682Z,8.75
2022-12-28T02:16:05.710Z,8.85
2022-12-28T02:19:44.907Z,8.93
2022-12-28T02:23:38.693Z,8.83
2022-12-28T02:27:42.215Z,8.79
2022-12-28T02:31:17.825Z,8.92
2022-12-28T02:35:08.293Z,9.01
2022-12-28T02:38:54.380Z,9.11
2022-12-28T02:42:20.709Z,9.26
2022-12-28T02:46:05.467Z,9.14
2022-12-28T02:49:47.945Z,9.12
2022-12-28T02:53:37.533Z,9.17
2022-12-28T02:57:24.213Z,9.29
2022-12-28T03:01:28.931Z,9.37
2022-12-28T03:05:48.791Z,8.73
2022-12-28T03:09:28.895Z,9.15
2022-12-28T03:13:27.780Z,9.28
2022-12-28T03:17:16.196Z,9.38
2022-12-28T03:20:57.995Z,9.65
2022-12-28T03:24:42.954Z,9.59
2022-12-28T03:28:30.019Z,9.59
2022-12-28T03:31:56.915Z,9.79
2022-12-28T03:36:01.540Z,9.77
2022-12-28T03:40:10.434Z,9.87
2022-12-28T03:43:50.562Z,9.82
2022-12-28T03:47:25.611Z,9.77
2022-12-28T03:50:51.861Z,9.96
2022-12-28T03:54:18.268Z,9.98
2022-12-28T03:57:42.430Z,10.00
2022-12-28T04:01:16.088Z,10.04
2022-12-28T04:04:40.834Z,9.97
2022-12-28T04:08:09.770Z,9.99
2022-12-28T04:11:31.888Z,9.72
2022-12-28T04:14:56.631Z,10.02
2022-12-28T04:18:32.907Z,10.08
2022-12-28T04:22:04.767Z,10.07
2022-12-28T04:25:31.552Z,10.07
2022-12-28T04:28:53.628Z,10.05
2022-12-28T04:32:37.686Z,10.06
2022-12-28T04:36:16.645Z,10.04
2022-12-28T04:39:57.469Z,9.76
2022-12-28T04:43:19.516Z,10.33
2022-12-28T04:46:45.433Z,10.08
2022-12-28T04:50:18.527Z,10.24
2022-12-28T04:53:41.348Z,10.32
2022-12-28T04:57:11.058Z,10.16
2022-12-28T05:00:40.998Z,10.00
2022-12-28T05:04:22.064Z,10.07
2022-12-28T05:07:50.157Z,10.33
2022-12-28T05:11:17.111Z,10.12
2022-12-28T05:14:39.072Z,10.21
2022-12-28T05:18:00.978Z,9.99
2022-12-28T05:21:27.191Z,9.96
2022-12-28T05:24:49.247Z,10.12
2022-12-28T05:28:19.326Z,10.32
2022-12-28T05:31:55.652Z,10.23
2022-12-28T05:35:17.544Z,10.20
2022-12-28T05:38:39.973Z,10.22
2022-12-28T05:42:02.677Z,10.25
2022-12-28T05:45:30.498Z,10.16
2022-12-28T05:48:55.116Z,10.37
2022-12-28T05:52:32.594Z,10.15
2022-12-28T05:56:26.847Z,10.30
2022-12-28T05:59:59.567Z,9.92
2022-12-28T06:03:31.825Z,10.05
2022-12-28T06:06:54.824Z,10.05
2022-12-28T06:10:18.763Z,10.19
2022-12-28T06:13:43.291Z,10.15
2022-12-28T06:17:06.177Z,10.11
2022-12-28T06:20:34.092Z,10.24
2022-12-28T06:24:11.580Z,10.13
2022-12-28T06:27:39.408Z,10.40
2022-12-28T06:31:07.236Z,10.35
2022-12-28T06:34:30.262Z,10.26
2022-12-28T06:37:52.067Z,10.25
2022-12-28T06:41:15.517Z,10.25
2022-12-28T06:44:44.413Z,10.19
2022-12-28T06:48:13.426Z,10.31
2022-12-28T06:51:52.388Z,10.23
2022-12-28T06:55:21.496Z,10.47
2022-12-28T06:58:50.618Z,10.44
2022-12-28T07:02:14.705Z,10.43
2022-12-28T07:05:41.869Z,10.43
2022-12-28T07:09:15.957Z,10.26
2022-12-28T07:12:48.908Z,10.38
2022-12-28T07:19:53.159Z,10.19
2022-12-28T07:23:19.150Z,10.30
2022-12-28T07:26:49.040Z,10.49
2022-12-28T07:30:17.062Z,10.48
2022-12-28T07:33:40.691Z,10.29
2022-12-28T07:37:02.479Z,10.26
2022-12-28T07:40:26.479Z,10.25
2022-12-28T07:43:49.024Z,10.34
2022-12-28T07:47:10.996Z,10.07
2022-12-28T07:50:40.819Z,10.20
2022-12-28T07:54:10.714Z,10.37
2022-12-28T07:57:34.540Z,10.26
2022-12-28T08:01:10.620Z,10.35
2022-12-28T08:04:40.858Z,10.38
2022-12-28T08:08:33.915Z,10.56
2022-12-28T08:11:55.790Z,10.56
2022-12-28T08:15:17.709Z,10.43
2022-12-28T08:18:42.400Z,10.50
2022-12-28T08:22:09.370Z,10.40
2022-12-28T08:25:37.435Z,10.52
2022-12-28T08:29:05.423Z,10.52
2022-12-28T08:32:28.309Z,10.39
2022-12-28T08:35:51.199Z,10.50
2022-12-28T08:39:14.392Z,10.57
2022-12-28T08:42:37.206Z,10.41
2022-12-28T08:46:12.542Z,10.62
2022-12-28T08:49:38.765Z,10.50
2022-12-28T08:53:00.649Z,10.52
2022-12-28T08:56:28.760Z,10.74
2022-12-28T08:59:50.603Z,10.69
2022-12-28T09:03:13.577Z,10.61
2022-12-28T09:06:42.957Z,10.66
2022-12-28T09:10:10.055Z,10.72
2022-12-28T09:13:43.297Z,10.78
2022-12-28T09:17:10.119Z,10.80
2022-12-28T09:21:06.004Z,10.98
2022-12-28T09:24:34.829Z,10.86
2022-12-28T09:27:59.693Z,11.04
2022-12-28T09:31:36.831Z,11.19
2022-12-28T09:35:01.880Z,11.21
2022-12-28T09:38:31.708Z,11.12
2022-12-28T09:42:04.347Z,11.44
2022-12-28T09:45:26.911Z,11.31
2022-12-28T09:48:57.378Z,11.62
2022-12-28T09:52:49.818Z,11.56
2022-12-28T09:56:39.503Z,11.60
2022-12-28T10:00:01.673Z,11.68
2022-12-28T10:03:47.140Z,11.58
2022-12-28T10:07:12.284Z,11.74
2022-12-28T10:10:35.223Z,11.56
2022-12-28T10:14:27.349Z,11.64
2022-12-28T10:17:49.151Z,11.49
2022-12-28T10:21:12.965Z,11.58
2022-12-28T10:24:41.430Z,11.60
2022-12-28T10:28:11.799Z,11.91
2022-12-28T10:31:40.438Z,11.92
2022-12-28T10:35:03.269Z,12.02
2022-12-28T10:38:35.006Z,12.46
2022-12-28T10:42:03.390Z,12.29
2022-12-28T10:45:50.351Z,12.37
2022-12-28T10:49:21.352Z,12.30
2022-12-28T10:52:43.224Z,12.34
2022-12-28T10:56:26.516Z,12.48
2022-12-28T11:00:21.864Z,12.50
2022-12-28T11:03:57.154Z,12.71
2022-12-28T11:07:38.170Z,12.49
2022-12-28T11:10:59.976Z,12.21
2022-12-28T11:14:36.705Z,12.11
2022-12-28T11:18:15.035Z,12.14
2022-12-28T11:21:37.498Z,12.06
2022-12-28T11:25:02.718Z,11.94
2022-12-28T11:28:28.682Z,12.05
2022-12-28T11:32:03.189Z,11.92
2022-12-28T11:35:44.311Z,11.78
2022-12-28T11:39:32.054Z,12.00
2022-12-28T11:42:56.623Z,11.99
2022-12-28T11:46:21.658Z,11.98
2022-12-28T11:49:48.625Z,11.82
2022-12-28T11:53:45.549Z,11.94
2022-12-28T11:57:37.019Z,11.96
2022-12-28T12:01:30.243Z,12.10
2022-12-28T12:04:52.171Z,12.18
2022-12-28T12:08:14.884Z,12.16
2022-12-28T12:11:41.051Z,11.79
2022-12-28T12:15:21.974Z,11.56
2022-12-28T12:18:50.336Z,11.96
2022-12-28T12:22:25.099Z,11.93
2022-12-28T12:25:54.141Z,12.28
2022-12-28T12:29:38.939Z,12.18
2022-12-28T12:33:08.438Z,12.16
2022-12-28T12:36:56.264Z,12.20
2022-12-28T12:41:17.093Z,12.07
2022-12-28T12:44:58.933Z,12.35
2022-12-28T12:48:45.729Z,12.48
2022-12-28T12:53:01.227Z,12.48
2022-12-28T12:56:40.373Z,12.41
2022-12-28T13:00:22.582Z,12.42
2022-12-28T13:04:09.013Z,12.36
2022-12-28T13:07:33.421Z,12.39
2022-12-28T13:10:55.999Z,12.27
2022-12-28T13:14:23.773Z,12.52
2022-12-28T13:22:28.179Z,12.29
2022-12-28T13:25:59.965Z,12.12
2022-12-28T13:29:40.371Z,12.22
2022-12-28T13:33:03.556Z,12.39
2022-12-28T13:36:27.278Z,12.24
2022-12-28T13:39:50.501Z,12.51
2022-12-28T13:44:10.798Z,12.27
2022-12-28T13:47:49.854Z,12.35
2022-12-28T13:51:17.469Z,12.52
2022-12-28T13:54:46.678Z,12.59
2022-12-28T13:58:27.103Z,12.31
2022-12-28T14:01:52.246Z,12.38
2022-12-28T14:05:26.084Z,12.38
2022-12-28T14:08:51.266Z,12.31
2022-12-28T14:12:15.443Z,12.36
2022-12-28T14:15:41.580Z,12.44
2022-12-28T14:19:12.239Z,12.48
2022-12-28T14:22:39.314Z,12.29
2022-12-28T14:26:24.340Z,12.35
2022-12-28T14:29:58.538Z,12.21
2022-12-28T14:33:32.704Z,12.27
2022-12-28T14:36:58.981Z,12.20
2022-12-28T14:40:38.301Z,12.38
2022-12-28T14:44:40.283Z,12.26
2022-12-28T14:48:02.980Z,12.18
2022-12-28T14:51:31.764Z,12.15
2022-12-28T14:54:55.430Z,11.92
2022-12-28T14:58:26.067Z,12.08
2022-12-28T15:01:52.695Z,12.28
2022-12-28T15:05:51.381Z,12.53
2022-12-28T15:09:13.262Z,12.34
2022-12-28T15:12:35.686Z,12.23
2022-12-28T15:16:04.140Z,12.17
2022-12-28T15:19:30.334Z,12.00
2022-12-28T15:22:53.236Z,11.94
2022-12-28T15:26:24.761Z,11.87
2022-12-28T15:30:05.072Z,11.74
2022-12-28T15:33:30.080Z,11.68
2022-12-28T15:36:52.573Z,11.68
2022-12-28T15:40:15.674Z,11.58
2022-12-28T15:43:37.448Z,11.62
2022-12-28T15:47:00.515Z,11.64
2022-12-28T15:50:24.611Z,11.55
2022-12-28T15:53:47.526Z,11.64
2022-12-28T15:57:15.661Z,11.71
2022-12-28T16:00:41.488Z,11.68
2022-12-28T16:04:14.726Z,11.82
2022-12-28T16:07:40.677Z,11.69
2022-12-28T16:11:19.381Z,11.68
2022-12-28T16:14:57.860Z,11.63
2022-12-28T16:18:19.727Z,11.42
2022-12-28T16:21:43.612Z,11.39
2022-12-28T16:25:10.802Z,11.26
2022-12-28T16:28:34.046Z,11.26
2022-12-28T16:32:00.419Z,11.38
2022-12-28T16:35:22.399Z,11.56
2022-12-28T16:38:52.943Z,11.66
2022-12-28T16:42:15.846Z,11.77
2022-12-28T16:45:44.019Z,11.80
2022-12-28T16:49:10.832Z,11.72
2022-12-28T16:52:32.757Z,11.92
2022-12-28T16:56:06.885Z,11.76
2022-12-28T16:59:36.761Z,11.52
2022-12-28T17:03:07.856Z,11.55
2022-12-28T17:06:48.197Z,11.56
2022-12-28T17:10:18.595Z,11.61
2022-12-28T17:13:40.610Z,11.60
2022-12-28T17:17:04.009Z,11.46
2022-12-28T17:20:27.464Z,11.33
2022-12-28T17:23:50.412Z,11.51
2022-12-28T17:27:19.043Z,11.42
2022-12-28T17:30:49.102Z,11.60
2022-12-28T17:34:11.316Z,11.42
2022-12-28T17:37:39.320Z,11.49
2022-12-28T17:41:16.915Z,11.46
2022-12-28T17:44:40.991Z,11.30
2022-12-28T17:48:09.098Z,11.36
2022-12-28T17:51:45.223Z,11.39
2022-12-28T17:55:08.582Z,11.25
2022-12-28T17:58:36.678Z,11.42
2022-12-28T18:02:01.698Z,11.54
2022-12-28T18:05:24.837Z,11.36
2022-12-28T18:08:46.831Z,11.43
2022-12-28T18:12:08.688Z,11.21
2022-12-28T18:15:33.953Z,11.38
2022-12-28T18:18:55.908Z,11.35
2022-12-28T18:22:18.315Z,11.23
2022-12-28T18:25:40.505Z,11.54
2022-12-28T18:29:07.701Z,11.56
2022-12-28T18:32:41.851Z,11.75
2022-12-28T18:36:13.822Z,11.68
2022-12-28T18:39:44.723Z,11.76
2022-12-28T18:43:13.631Z,11.73
2022-12-28T18:46:37.809Z,11.57
2022-12-28T18:50:02.351Z,11.52
2022-12-28T18:53:26.498Z,11.47
2022-12-28T18:56:56.512Z,11.50
2022-12-28T19:00:20.600Z,11.44
2022-12-28T19:03:44.774Z,11.55
2022-12-28T19:07:07.810Z,11.45
2022-12-28T19:10:37.741Z,11.66
2022-12-28T19:14:03.918Z,11.68
2022-12-28T19:17:44.258Z,11.67
2022-12-28T19:21:30.662Z,11.76
2022-12-28T19:24:58.428Z,11.54
2022-12-28T19:28:23.407Z,11.37
2022-12-28T19:31:48.353Z,11.43
2022-12-28T19:35:10.546Z,11.52
2022-12-28T19:38:33.120Z,11.41
2022-12-28T19:41:55.099Z,11.49
2022-12-28T19:45:18.121Z,11.34
2022-12-28T19:48:40.292Z,11.19
2022-12-28T19:52:02.289Z,11.22
2022-12-28T19:55:27.517Z,11.31
2022-12-28T19:58:56.460Z,10.89
2022-12-28T20:02:21.661Z,11.20
2022-12-28T20:05:49.642Z,11.44
2022-12-28T20:09:13.220Z,11.48
2022-12-28T20:12:41.162Z,11.41
2022-12-28T20:16:34.147Z,11.40
2022-12-28T20:19:57.998Z,11.38
2022-12-28T20:23:23.967Z,11.67
2022-12-28T20:27:01.453Z,11.64
2022-12-28T20:30:33.059Z,11.65
2022-12-28T20:33:55.423Z,11.53
2022-12-28T20:37:20.454Z,11.62
2022-12-28T20:40:43.336Z,11.70
2022-12-28T20:44:17.782Z,11.56
2022-12-28T20:47:42.802Z,11.75
2022-12-28T20:51:13.606Z,11.65
2022-12-28T20:54:35.948Z,11.75
2022-12-28T20:57:57.939Z,11.71
2022-12-28T21:01:32.140Z,11.84
2022-12-28T21:04:54.176Z,11.91
2022-12-28T21:08:23.807Z,11.81
2022-12-28T21:11:50.203Z,11.74
2022-12-28T21:15:24.082Z,11.86
2022-12-28T21:18:50.600Z,12.15
2022-12-28T21:22:12.538Z,11.86
2022-12-28T21:26:00.245Z,11.80
2022-12-28T21:29:30.989Z,11.78
2022-12-28T21:32:53.966Z,12.02
2022-12-28T21:36:19.193Z,11.81
2022-12-28T21:40:00.061Z,11.87
2022-12-28T21:43:23.967Z,11.80
2022-12-28T21:46:53.916Z,12.04
2022-12-28T21:50:27.148Z,11.96
2022-12-28T21:54:05.917Z,12.01
2022-12-28T21:57:28.695Z,11.97
2022-12-28T22:01:09.184Z,12.05
2022-12-28T22:04:50.053Z,12.29
2022-12-28T22:08:40.466Z,12.33
2022-12-28T22:12:40.026Z,12.34
2022-12-28T22:16:01.879Z,12.10
2022-12-28T22:19:25.807Z,12.10
2022-12-28T22:22:49.629Z,12.29
2022-12-28T22:26:13.462Z,12.36
2022-12-28T22:29:37.364Z,12.24
2022-12-28T22:32:59.294Z,12.31
2022-12-28T22:37:03.542Z,12.37
2022-12-28T22:40:28.327Z,12.41
2022-12-28T22:43:54.610Z,12.45
2022-12-28T22:47:28.138Z,12.28
2022-12-28T22:50:49.938Z,12.23
2022-12-28T22:54:12.861Z,12.52
2022-12-28T22:57:42.590Z,12.33
2022-12-28T23:01:11.322Z,12.48
2022-12-28T23:04:33.240Z,12.63
2022-12-28T23:07:55.011Z,12.37
2022-12-28T23:11:52.142Z,12.45
2022-12-28T23:15:21.559Z,12.38
2022-12-28T23:19:19.864Z,12.31
2022-12-28T23:23:00.514Z,11.84
2022-12-28T23:27:07.233Z,12.18
2022-12-28T23:30:47.918Z,12.20
2022-12-28T23:34:16.039Z,11.97
2022-12-28T23:37:56.273Z,12.08
2022-12-28T23:41:39.503Z,12.00
2022-12-28T23:45:39.414Z,12.40
2022-12-28T23:49:24.459Z,12.24
2022-12-28T23:52:51.404Z,12.23
2022-12-28T23:56:18.322Z,12.06
2022-12-28T23:59:40.288Z,12.00
